sensor_id;sensor_type;location;lat;lon;timestamp;temperature;humidity
46976;DHT22;32724;51.094;6.996;2022-07-10T00:02:21;13.30;99.90
46976;DHT22;32724;51.094;6.996;2022-07-10T00:04:46;13.30;99.90
46976;DHT22;32724;51.094;6.996;2022-07-10T00:07:12;13.30;99.90
46976;DHT22;32724;51.094;6.996;2022-07-10T00:09:37;13.30;99.90
46976;DHT22;32724;51.094;6.996;2022-07-10T00:12:03;13.20;99.90
46976;DHT22;32724;51.094;6.996;2022-07-10T00:14:30;13.20;99.90
46976;DHT22;32724;51.094;6.996;2022-07-10T00:16:55;13.20;99.90
46976;DHT22;32724;51.094;6.996;2022-07-10T00:19:21;13.10;99.90
46976;DHT22;32724;51.094;6.996;2022-07-10T00:21:46;13.00;99.90
46976;DHT22;32724;51.094;6.996;2022-07-10T00:24:12;13.00;99.90
46976;DHT22;32724;51.094;6.996;2022-07-10T00:26:37;13.00;99.90
46976;DHT22;32724;51.094;6.996;2022-07-10T00:29:03;12.80;99.90
46976;DHT22;32724;51.094;6.996;2022-07-10T00:31:28;12.80;99.90
46976;DHT22;32724;51.094;6.996;2022-07-10T00:33:54;12.80;99.90
46976;DHT22;32724;51.094;6.996;2022-07-10T00:36:19;12.80;99.90
46976;DHT22;32724;51.094;6.996;2022-07-10T00:38:45;12.70;99.90
46976;DHT22;32724;51.094;6.996;2022-07-10T00:41:11;12.70;99.90
46976;DHT22;32724;51.094;6.996;2022-07-10T00:46:17;12.60;99.90
46976;DHT22;32724;51.094;6.996;2022-07-10T00:48:46;12.60;99.90
46976;DHT22;32724;51.094;6.996;2022-07-10T00:51:11;12.60;99.90
46976;DHT22;32724;51.094;6.996;2022-07-10T00:53:37;12.50;99.90
46976;DHT22;32724;51.094;6.996;2022-07-10T00:56:02;12.50;99.90
46976;DHT22;32724;51.094;6.996;2022-07-10T00:58:28;12.50;99.90
46976;DHT22;32724;51.094;6.996;2022-07-10T01:00:54;12.50;99.90
46976;DHT22;32724;51.094;6.996;2022-07-10T01:03:19;12.50;99.90
46976;DHT22;32724;51.094;6.996;2022-07-10T01:05:44;12.50;99.90
46976;DHT22;32724;51.094;6.996;2022-07-10T01:08:10;12.50;99.90
46976;DHT22;32724;51.094;6.996;2022-07-10T01:10:36;12.50;99.90
46976;DHT22;32724;51.094;6.996;2022-07-10T01:13:02;12.50;99.90
46976;DHT22;32724;51.094;6.996;2022-07-10T01:15:28;12.50;99.90
46976;DHT22;32724;51.094;6.996;2022-07-10T01:17:53;12.50;99.90
46976;DHT22;32724;51.094;6.996;2022-07-10T01:20:20;12.50;99.90
46976;DHT22;32724;51.094;6.996;2022-07-10T01:22:46;12.50;99.90
46976;DHT22;32724;51.094;6.996;2022-07-10T01:25:11;12.40;99.90
46976;DHT22;32724;51.094;6.996;2022-07-10T01:27:37;12.30;99.90
46976;DHT22;32724;51.094;6.996;2022-07-10T01:30:02;12.30;99.90
46976;DHT22;32724;51.094;6.996;2022-07-10T01:32:36;12.20;99.90
46976;DHT22;32724;51.094;6.996;2022-07-10T01:35:01;12.30;99.90
46976;DHT22;32724;51.094;6.996;2022-07-10T01:37:26;12.30;99.90
46976;DHT22;32724;51.094;6.996;2022-07-10T01:39:52;12.30;99.90
46976;DHT22;32724;51.094;6.996;2022-07-10T01:42:17;12.30;99.90
46976;DHT22;32724;51.094;6.996;2022-07-10T01:44:43;12.20;99.90
46976;DHT22;32724;51.094;6.996;2022-07-10T01:47:08;12.20;99.90
46976;DHT22;32724;51.094;6.996;2022-07-10T01:49:34;12.20;99.90
46976;DHT22;32724;51.094;6.996;2022-07-10T01:51:59;12.20;99.90
46976;DHT22;32724;51.094;6.996;2022-07-10T01:54:25;12.30;99.90
46976;DHT22;32724;51.094;6.996;2022-07-10T01:56:50;12.50;99.90
46976;DHT22;32724;51.094;6.996;2022-07-10T01:59:16;12.70;99.90
46976;DHT22;32724;51.094;6.996;2022-07-10T02:01:41;12.80;99.90
46976;DHT22;32724;51.094;6.996;2022-07-10T02:04:07;12.90;99.90
46976;DHT22;32724;51.094;6.996;2022-07-10T02:06:51;13.00;99.90
46976;DHT22;32724;51.094;6.996;2022-07-10T02:09:17;13.10;99.90
46976;DHT22;32724;51.094;6.996;2022-07-10T02:11:42;13.20;99.90
46976;DHT22;32724;51.094;6.996;2022-07-10T02:14:08;13.20;99.90
46976;DHT22;32724;51.094;6.996;2022-07-10T02:16:33;13.20;99.90
46976;DHT22;32724;51.094;6.996;2022-07-10T02:18:59;13.20;99.90
46976;DHT22;32724;51.094;6.996;2022-07-10T02:21:25;13.20;99.90
46976;DHT22;32724;51.094;6.996;2022-07-10T02:23:50;13.20;99.90
46976;DHT22;32724;51.094;6.996;2022-07-10T02:26:16;13.10;99.90
46976;DHT22;32724;51.094;6.996;2022-07-10T02:28:41;13.10;99.90
46976;DHT22;32724;51.094;6.996;2022-07-10T02:31:06;12.90;99.90
46976;DHT22;32724;51.094;6.996;2022-07-10T02:33:32;12.80;99.90
46976;DHT22;32724;51.094;6.996;2022-07-10T02:35:57;12.70;99.90
46976;DHT22;32724;51.094;6.996;2022-07-10T02:38:23;12.70;99.90
46976;DHT22;32724;51.094;6.996;2022-07-10T02:40:48;12.60;99.90
46976;DHT22;32724;51.094;6.996;2022-07-10T02:43:14;12.70;99.90
46976;DHT22;32724;51.094;6.996;2022-07-10T02:45:39;12.60;99.90
46976;DHT22;32724;51.094;6.996;2022-07-10T02:48:05;12.60;99.90
46976;DHT22;32724;51.094;6.996;2022-07-10T02:50:30;12.60;99.90
46976;DHT22;32724;51.094;6.996;2022-07-10T02:52:56;12.60;99.90
46976;DHT22;32724;51.094;6.996;2022-07-10T02:55:21;12.60;99.90
46976;DHT22;32724;51.094;6.996;2022-07-10T02:57:47;12.70;99.90
46976;DHT22;32724;51.094;6.996;2022-07-10T03:00:12;12.70;99.90
46976;DHT22;32724;51.094;6.996;2022-07-10T03:02:38;12.70;99.90
46976;DHT22;32724;51.094;6.996;2022-07-10T03:05:03;12.70;99.90
46976;DHT22;32724;51.094;6.996;2022-07-10T03:07:29;12.70;99.90
46976;DHT22;32724;51.094;6.996;2022-07-10T03:09:54;12.80;99.90
46976;DHT22;32724;51.094;6.996;2022-07-10T03:12:20;12.80;99.90
46976;DHT22;32724;51.094;6.996;2022-07-10T03:14:45;12.80;99.90
46976;DHT22;32724;51.094;6.996;2022-07-10T03:17:11;12.90;99.90
46976;DHT22;32724;51.094;6.996;2022-07-10T03:19:36;12.90;99.90
46976;DHT22;32724;51.094;6.996;2022-07-10T03:22:02;13.00;99.90
46976;DHT22;32724;51.094;6.996;2022-07-10T03:24:27;13.00;99.90
46976;DHT22;32724;51.094;6.996;2022-07-10T03:26:54;13.00;99.90
46976;DHT22;32724;51.094;6.996;2022-07-10T03:29:19;13.00;99.90
46976;DHT22;32724;51.094;6.996;2022-07-10T03:31:44;13.20;99.90
46976;DHT22;32724;51.094;6.996;2022-07-10T03:34:10;13.10;99.90
46976;DHT22;32724;51.094;6.996;2022-07-10T03:36:35;13.10;99.90
46976;DHT22;32724;51.094;6.996;2022-07-10T03:39:01;13.20;99.90
46976;DHT22;32724;51.094;6.996;2022-07-10T03:41:26;13.30;99.90
46976;DHT22;32724;51.094;6.996;2022-07-10T03:43:52;13.30;99.90
46976;DHT22;32724;51.094;6.996;2022-07-10T03:46:17;13.20;99.90
46976;DHT22;32724;51.094;6.996;2022-07-10T03:48:43;13.30;99.90
46976;DHT22;32724;51.094;6.996;2022-07-10T03:51:08;13.30;99.90
46976;DHT22;32724;51.094;6.996;2022-07-10T03:53:33;13.40;99.90
46976;DHT22;32724;51.094;6.996;2022-07-10T03:55:59;13.50;99.90
46976;DHT22;32724;51.094;6.996;2022-07-10T03:58:26;13.50;99.90
46976;DHT22;32724;51.094;6.996;2022-07-10T04:00:51;13.50;99.90
46976;DHT22;32724;51.094;6.996;2022-07-10T04:03:17;13.50;99.90
46976;DHT22;32724;51.094;6.996;2022-07-10T04:05:43;13.60;99.90
46976;DHT22;32724;51.094;6.996;2022-07-10T04:08:08;13.60;99.90
46976;DHT22;32724;51.094;6.996;2022-07-10T04:10:34;13.60;99.90
46976;DHT22;32724;51.094;6.996;2022-07-10T04:13:00;13.50;99.90
46976;DHT22;32724;51.094;6.996;2022-07-10T04:15:26;13.50;99.90
46976;DHT22;32724;51.094;6.996;2022-07-10T04:17:51;13.60;99.90
46976;DHT22;32724;51.094;6.996;2022-07-10T04:20:17;13.50;99.90
46976;DHT22;32724;51.094;6.996;2022-07-10T04:22:43;13.50;99.90
46976;DHT22;32724;51.094;6.996;2022-07-10T04:25:09;13.60;99.90
46976;DHT22;32724;51.094;6.996;2022-07-10T04:27:35;13.60;99.90
46976;DHT22;32724;51.094;6.996;2022-07-10T04:30:00;13.60;99.90
46976;DHT22;32724;51.094;6.996;2022-07-10T04:32:26;13.60;99.90
46976;DHT22;32724;51.094;6.996;2022-07-10T04:34:53;13.70;99.90
46976;DHT22;32724;51.094;6.996;2022-07-10T04:37:19;13.70;99.90
46976;DHT22;32724;51.094;6.996;2022-07-10T04:39:44;13.80;99.90
46976;DHT22;32724;51.094;6.996;2022-07-10T04:42:09;13.90;99.90
46976;DHT22;32724;51.094;6.996;2022-07-10T04:44:35;14.00;99.90
46976;DHT22;32724;51.094;6.996;2022-07-10T04:47:04;14.10;99.90
46976;DHT22;32724;51.094;6.996;2022-07-10T04:49:32;14.20;99.90
46976;DHT22;32724;51.094;6.996;2022-07-10T04:51:58;14.20;99.90
46976;DHT22;32724;51.094;6.996;2022-07-10T04:54:23;14.10;99.90
46976;DHT22;32724;51.094;6.996;2022-07-10T04:56:49;14.10;99.90
46976;DHT22;32724;51.094;6.996;2022-07-10T04:59:14;14.20;99.90
46976;DHT22;32724;51.094;6.996;2022-07-10T05:01:40;14.30;99.90
46976;DHT22;32724;51.094;6.996;2022-07-10T05:04:05;14.40;99.90
46976;DHT22;32724;51.094;6.996;2022-07-10T05:06:31;14.60;99.90
46976;DHT22;32724;51.094;6.996;2022-07-10T05:08:57;14.70;99.90
46976;DHT22;32724;51.094;6.996;2022-07-10T05:11:22;14.70;99.90
46976;DHT22;32724;51.094;6.996;2022-07-10T05:13:48;15.10;99.90
46976;DHT22;32724;51.094;6.996;2022-07-10T05:16:14;16.10;99.90
46976;DHT22;32724;51.094;6.996;2022-07-10T05:18:39;17.10;99.90
46976;DHT22;32724;51.094;6.996;2022-07-10T05:21:05;17.90;99.90
46976;DHT22;32724;51.094;6.996;2022-07-10T05:23:31;18.90;99.90
46976;DHT22;32724;51.094;6.996;2022-07-10T05:25:56;19.60;99.90
46976;DHT22;32724;51.094;6.996;2022-07-10T05:28:22;20.40;99.90
46976;DHT22;32724;51.094;6.996;2022-07-10T05:30:47;21.30;99.90
46976;DHT22;32724;51.094;6.996;2022-07-10T05:33:14;22.10;99.90
46976;DHT22;32724;51.094;6.996;2022-07-10T05:35:40;21.80;99.90
46976;DHT22;32724;51.094;6.996;2022-07-10T05:38:05;22.30;99.90
46976;DHT22;32724;51.094;6.996;2022-07-10T05:40:31;22.80;99.90
46976;DHT22;32724;51.094;6.996;2022-07-10T05:42:56;22.00;99.90
46976;DHT22;32724;51.094;6.996;2022-07-10T05:45:22;22.10;99.90
46976;DHT22;32724;51.094;6.996;2022-07-10T05:47:48;21.40;99.90
46976;DHT22;32724;51.094;6.996;2022-07-10T05:50:13;21.20;99.90
46976;DHT22;32724;51.094;6.996;2022-07-10T05:52:39;21.50;99.90
46976;DHT22;32724;51.094;6.996;2022-07-10T05:55:05;22.20;99.90
46976;DHT22;32724;51.094;6.996;2022-07-10T05:57:30;21.90;99.90
46976;DHT22;32724;51.094;6.996;2022-07-10T05:59:59;21.40;99.90
46976;DHT22;32724;51.094;6.996;2022-07-10T06:02:25;21.40;99.90
46976;DHT22;32724;51.094;6.996;2022-07-10T06:04:51;21.10;99.90
46976;DHT22;32724;51.094;6.996;2022-07-10T06:07:17;20.70;99.90
46976;DHT22;32724;51.094;6.996;2022-07-10T06:09:43;21.50;99.90
46976;DHT22;32724;51.094;6.996;2022-07-10T06:12:08;21.80;99.90
46976;DHT22;32724;51.094;6.996;2022-07-10T06:14:34;21.60;99.90
46976;DHT22;32724;51.094;6.996;2022-07-10T06:17:00;21.20;99.90
46976;DHT22;32724;51.094;6.996;2022-07-10T06:19:25;20.10;99.90
46976;DHT22;32724;51.094;6.996;2022-07-10T06:21:51;19.10;99.90
46976;DHT22;32724;51.094;6.996;2022-07-10T06:24:36;18.20;99.90
46976;DHT22;32724;51.094;6.996;2022-07-10T06:27:02;17.40;99.90
46976;DHT22;32724;51.094;6.996;2022-07-10T06:29:27;17.00;99.90
46976;DHT22;32724;51.094;6.996;2022-07-10T06:31:53;16.80;99.90
46976;DHT22;32724;51.094;6.996;2022-07-10T06:34:18;16.80;99.90
46976;DHT22;32724;51.094;6.996;2022-07-10T06:36:44;17.20;99.90
46976;DHT22;32724;51.094;6.996;2022-07-10T06:39:10;18.50;99.90
46976;DHT22;32724;51.094;6.996;2022-07-10T06:41:35;18.90;99.90
46976;DHT22;32724;51.094;6.996;2022-07-10T06:44:01;20.10;99.90
46976;DHT22;32724;51.094;6.996;2022-07-10T06:46:27;20.40;99.90
46976;DHT22;32724;51.094;6.996;2022-07-10T06:48:53;19.40;99.90
46976;DHT22;32724;51.094;6.996;2022-07-10T06:51:18;18.50;99.90
46976;DHT22;32724;51.094;6.996;2022-07-10T06:53:44;17.90;99.90
46976;DHT22;32724;51.094;6.996;2022-07-10T06:56:09;17.30;99.90
46976;DHT22;32724;51.094;6.996;2022-07-10T06:58:35;17.00;99.90
46976;DHT22;32724;51.094;6.996;2022-07-10T07:01:01;16.80;99.90
46976;DHT22;32724;51.094;6.996;2022-07-10T07:03:26;16.70;99.90
46976;DHT22;32724;51.094;6.996;2022-07-10T07:05:52;16.70;99.90
46976;DHT22;32724;51.094;6.996;2022-07-10T07:08:17;16.80;99.90
46976;DHT22;32724;51.094;6.996;2022-07-10T07:10:42;16.70;99.90
46976;DHT22;32724;51.094;6.996;2022-07-10T07:13:09;16.60;99.90
46976;DHT22;32724;51.094;6.996;2022-07-10T07:15:35;16.60;99.90
46976;DHT22;32724;51.094;6.996;2022-07-10T07:18:04;16.70;99.90
46976;DHT22;32724;51.094;6.996;2022-07-10T07:20:33;16.70;99.90
46976;DHT22;32724;51.094;6.996;2022-07-10T07:23:17;16.80;99.90
46976;DHT22;32724;51.094;6.996;2022-07-10T07:25:43;16.70;99.90
46976;DHT22;32724;51.094;6.996;2022-07-10T07:28:12;16.70;99.90
46976;DHT22;32724;51.094;6.996;2022-07-10T07:30:38;16.60;99.90
46976;DHT22;32724;51.094;6.996;2022-07-10T07:33:03;16.70;99.90
46976;DHT22;32724;51.094;6.996;2022-07-10T07:35:29;16.60;99.90
46976;DHT22;32724;51.094;6.996;2022-07-10T07:37:54;16.70;99.90
46976;DHT22;32724;51.094;6.996;2022-07-10T07:40:21;16.70;99.90
46976;DHT22;32724;51.094;6.996;2022-07-10T07:42:52;16.90;99.90
46976;DHT22;32724;51.094;6.996;2022-07-10T07:45:18;17.10;99.90
46976;DHT22;32724;51.094;6.996;2022-07-10T07:47:48;17.20;99.90
46976;DHT22;32724;51.094;6.996;2022-07-10T07:50:14;17.40;99.90
46976;DHT22;32724;51.094;6.996;2022-07-10T07:52:40;17.50;99.90
46976;DHT22;32724;51.094;6.996;2022-07-10T07:55:06;17.20;99.90
46976;DHT22;32724;51.094;6.996;2022-07-10T07:57:31;17.30;99.90
46976;DHT22;32724;51.094;6.996;2022-07-10T07:59:57;17.30;99.90
46976;DHT22;32724;51.094;6.996;2022-07-10T08:02:22;17.00;99.90
46976;DHT22;32724;51.094;6.996;2022-07-10T08:04:48;17.00;99.90
46976;DHT22;32724;51.094;6.996;2022-07-10T08:07:13;17.00;99.90
46976;DHT22;32724;51.094;6.996;2022-07-10T08:09:39;16.90;99.90
46976;DHT22;32724;51.094;6.996;2022-07-10T08:12:05;16.80;99.90
46976;DHT22;32724;51.094;6.996;2022-07-10T08:14:30;16.60;99.90
46976;DHT22;32724;51.094;6.996;2022-07-10T08:16:56;16.50;99.90
46976;DHT22;32724;51.094;6.996;2022-07-10T08:19:21;16.70;99.90
46976;DHT22;32724;51.094;6.996;2022-07-10T08:21:47;16.60;99.90
46976;DHT22;32724;51.094;6.996;2022-07-10T08:24:12;16.60;99.90
46976;DHT22;32724;51.094;6.996;2022-07-10T08:26:38;16.40;99.90
46976;DHT22;32724;51.094;6.996;2022-07-10T08:29:03;16.40;99.90
46976;DHT22;32724;51.094;6.996;2022-07-10T08:31:28;16.40;99.90
46976;DHT22;32724;51.094;6.996;2022-07-10T08:33:54;16.40;99.90
46976;DHT22;32724;51.094;6.996;2022-07-10T08:36:19;16.50;99.90
46976;DHT22;32724;51.094;6.996;2022-07-10T08:38:45;16.50;99.90
46976;DHT22;32724;51.094;6.996;2022-07-10T08:41:11;16.50;99.90
46976;DHT22;32724;51.094;6.996;2022-07-10T08:43:38;16.40;99.90
46976;DHT22;32724;51.094;6.996;2022-07-10T08:46:04;16.40;99.90
46976;DHT22;32724;51.094;6.996;2022-07-10T08:48:30;16.40;99.90
46976;DHT22;32724;51.094;6.996;2022-07-10T08:50:57;16.80;99.90
46976;DHT22;32724;51.094;6.996;2022-07-10T08:55:51;17.80;99.90
46976;DHT22;32724;51.094;6.996;2022-07-10T08:58:16;17.90;99.90
46976;DHT22;32724;51.094;6.996;2022-07-10T09:00:43;17.80;99.90
46976;DHT22;32724;51.094;6.996;2022-07-10T09:03:08;17.80;99.90
46976;DHT22;32724;51.094;6.996;2022-07-10T09:05:34;17.60;99.90
46976;DHT22;32724;51.094;6.996;2022-07-10T09:08:00;17.70;99.90
46976;DHT22;32724;51.094;6.996;2022-07-10T09:10:27;18.10;99.90
46976;DHT22;32724;51.094;6.996;2022-07-10T09:12:59;18.50;99.90
46976;DHT22;32724;51.094;6.996;2022-07-10T09:15:26;18.70;99.90
46976;DHT22;32724;51.094;6.996;2022-07-10T09:17:58;18.50;99.90
46976;DHT22;32724;51.094;6.996;2022-07-10T09:22:55;18.10;99.90
46976;DHT22;32724;51.094;6.996;2022-07-10T09:25:21;18.30;99.90
46976;DHT22;32724;51.094;6.996;2022-07-10T09:27:53;18.60;99.90
46976;DHT22;32724;51.094;6.996;2022-07-10T09:31:01;18.90;99.90
46976;DHT22;32724;51.094;6.996;2022-07-10T09:36:11;19.50;99.90
46976;DHT22;32724;51.094;6.996;2022-07-10T09:41:48;19.20;99.90
46976;DHT22;32724;51.094;6.996;2022-07-10T09:43:58;18.80;99.90
46976;DHT22;32724;51.094;6.996;2022-07-10T09:46:35;18.20;99.90
46976;DHT22;32724;51.094;6.996;2022-07-10T09:49:05;18.10;99.90
46976;DHT22;32724;51.094;6.996;2022-07-10T09:51:32;18.30;99.90
46976;DHT22;32724;51.094;6.996;2022-07-10T09:53:59;18.30;99.90
46976;DHT22;32724;51.094;6.996;2022-07-10T09:56:25;18.20;99.90
46976;DHT22;32724;51.094;6.996;2022-07-10T09:58:52;18.10;99.90
46976;DHT22;32724;51.094;6.996;2022-07-10T10:01:19;17.90;99.90
46976;DHT22;32724;51.094;6.996;2022-07-10T10:03:45;17.60;99.90
46976;DHT22;32724;51.094;6.996;2022-07-10T10:06:15;17.60;99.90
46976;DHT22;32724;51.094;6.996;2022-07-10T10:11:09;17.40;99.90
46976;DHT22;32724;51.094;6.996;2022-07-10T10:13:38;17.30;99.90
46976;DHT22;32724;51.094;6.996;2022-07-10T10:16:04;17.30;99.90
46976;DHT22;32724;51.094;6.996;2022-07-10T10:18:33;17.40;99.90
46976;DHT22;32724;51.094;6.996;2022-07-10T10:20:59;17.30;99.90
46976;DHT22;32724;51.094;6.996;2022-07-10T10:23:26;17.10;99.90
46976;DHT22;32724;51.094;6.996;2022-07-10T10:25:54;16.90;99.90
46976;DHT22;32724;51.094;6.996;2022-07-10T10:28:20;16.90;99.90
46976;DHT22;32724;51.094;6.996;2022-07-10T10:30:55;16.80;99.90
46976;DHT22;32724;51.094;6.996;2022-07-10T10:36:08;16.50;99.90
46976;DHT22;32724;51.094;6.996;2022-07-10T10:41:36;16.60;99.90
46976;DHT22;32724;51.094;6.996;2022-07-10T10:44:23;16.90;99.90
46976;DHT22;32724;51.094;6.996;2022-07-10T10:49:23;17.80;99.90
46976;DHT22;32724;51.094;6.996;2022-07-10T10:52:00;18.40;99.90
46976;DHT22;32724;51.094;6.996;2022-07-10T10:54:27;18.90;99.90
46976;DHT22;32724;51.094;6.996;2022-07-10T10:57:12;19.30;99.90
46976;DHT22;32724;51.094;6.996;2022-07-10T10:59:47;19.70;99.90
46976;DHT22;32724;51.094;6.996;2022-07-10T11:04:51;19.30;99.90
46976;DHT22;32724;51.094;6.996;2022-07-10T11:10:25;18.40;99.90
46976;DHT22;32724;51.094;6.996;2022-07-10T11:13:34;18.00;99.90
46976;DHT22;32724;51.094;6.996;2022-07-10T11:15:41;17.70;99.90
46976;DHT22;32724;51.094;6.996;2022-07-10T11:18:10;17.70;99.90
46976;DHT22;32724;51.094;6.996;2022-07-10T11:20:46;17.90;99.90
46976;DHT22;32724;51.094;6.996;2022-07-10T11:28:25;18.20;99.90
46976;DHT22;32724;51.094;6.996;2022-07-10T11:30:54;18.10;99.90
46976;DHT22;32724;51.094;6.996;2022-07-10T11:33:20;17.90;99.90
46976;DHT22;32724;51.094;6.996;2022-07-10T11:35:47;18.00;99.90
46976;DHT22;32724;51.094;6.996;2022-07-10T11:38:13;17.90;99.90
46976;DHT22;32724;51.094;6.996;2022-07-10T11:40:43;17.60;99.90
46976;DHT22;32724;51.094;6.996;2022-07-10T11:43:09;17.40;99.90
46976;DHT22;32724;51.094;6.996;2022-07-10T11:45:39;17.30;99.90
46976;DHT22;32724;51.094;6.996;2022-07-10T11:48:05;17.50;99.90
46976;DHT22;32724;51.094;6.996;2022-07-10T11:50:35;17.70;99.90
46976;DHT22;32724;51.094;6.996;2022-07-10T11:53:02;17.90;99.90
46976;DHT22;32724;51.094;6.996;2022-07-10T11:55:28;18.10;99.90
46976;DHT22;32724;51.094;6.996;2022-07-10T11:57:54;18.20;99.90
46976;DHT22;32724;51.094;6.996;2022-07-10T12:00:24;18.20;99.90
46976;DHT22;32724;51.094;6.996;2022-07-10T12:02:50;18.10;99.90
46976;DHT22;32724;51.094;6.996;2022-07-10T12:05:32;17.80;99.90
46976;DHT22;32724;51.094;6.996;2022-07-10T12:07:57;17.60;99.90
46976;DHT22;32724;51.094;6.996;2022-07-10T12:10:27;17.30;99.90
46976;DHT22;32724;51.094;6.996;2022-07-10T12:12:52;17.20;99.90
46976;DHT22;32724;51.094;6.996;2022-07-10T12:15:31;16.90;99.90
46976;DHT22;32724;51.094;6.996;2022-07-10T12:17:57;16.60;99.90
46976;DHT22;32724;51.094;6.996;2022-07-10T12:20:22;16.50;99.90
46976;DHT22;32724;51.094;6.996;2022-07-10T12:22:48;16.50;99.90
46976;DHT22;32724;51.094;6.996;2022-07-10T12:25:13;16.40;99.90
46976;DHT22;32724;51.094;6.996;2022-07-10T12:27:39;16.40;99.90
46976;DHT22;32724;51.094;6.996;2022-07-10T12:30:05;16.40;99.90
46976;DHT22;32724;51.094;6.996;2022-07-10T12:32:30;16.50;99.90
46976;DHT22;32724;51.094;6.996;2022-07-10T12:34:58;16.50;99.90
46976;DHT22;32724;51.094;6.996;2022-07-10T12:37:23;16.80;99.90
46976;DHT22;32724;51.094;6.996;2022-07-10T12:39:50;17.10;99.90
46976;DHT22;32724;51.094;6.996;2022-07-10T12:42:28;17.50;99.90
46976;DHT22;32724;51.094;6.996;2022-07-10T12:44:54;17.80;99.90
46976;DHT22;32724;51.094;6.996;2022-07-10T12:47:20;17.90;99.90
46976;DHT22;32724;51.094;6.996;2022-07-10T12:50:05;17.80;99.90
46976;DHT22;32724;51.094;6.996;2022-07-10T12:52:31;17.60;99.90
46976;DHT22;32724;51.094;6.996;2022-07-10T12:55:13;17.30;99.90
46976;DHT22;32724;51.094;6.996;2022-07-10T12:57:49;17.20;99.90
46976;DHT22;32724;51.094;6.996;2022-07-10T13:00:16;17.00;99.90
46976;DHT22;32724;51.094;6.996;2022-07-10T13:02:41;16.80;99.90
46976;DHT22;32724;51.094;6.996;2022-07-10T13:05:07;16.60;99.90
46976;DHT22;32724;51.094;6.996;2022-07-10T13:07:33;16.40;99.90
46976;DHT22;32724;51.094;6.996;2022-07-10T13:10:05;16.40;99.90
46976;DHT22;32724;51.094;6.996;2022-07-10T13:12:32;16.40;99.90
46976;DHT22;32724;51.094;6.996;2022-07-10T13:14:57;16.50;99.90
46976;DHT22;32724;51.094;6.996;2022-07-10T13:17:23;16.70;99.90
46976;DHT22;32724;51.094;6.996;2022-07-10T13:19:49;16.80;99.90
46976;DHT22;32724;51.094;6.996;2022-07-10T13:22:15;17.20;99.90
46976;DHT22;32724;51.094;6.996;2022-07-10T13:24:40;17.40;99.90
46976;DHT22;32724;51.094;6.996;2022-07-10T13:27:05;17.80;99.90
46976;DHT22;32724;51.094;6.996;2022-07-10T13:29:32;17.80;99.90
46976;DHT22;32724;51.094;6.996;2022-07-10T13:31:57;17.90;99.90
46976;DHT22;32724;51.094;6.996;2022-07-10T13:34:23;18.00;99.90
46976;DHT22;32724;51.094;6.996;2022-07-10T13:36:48;18.10;99.90
46976;DHT22;32724;51.094;6.996;2022-07-10T13:39:15;18.10;99.90
46976;DHT22;32724;51.094;6.996;2022-07-10T13:41:41;18.40;99.90
46976;DHT22;32724;51.094;6.996;2022-07-10T13:44:06;18.60;99.90
46976;DHT22;32724;51.094;6.996;2022-07-10T13:46:31;18.90;99.90
46976;DHT22;32724;51.094;6.996;2022-07-10T13:48:58;19.00;99.90
46976;DHT22;32724;51.094;6.996;2022-07-10T13:51:23;19.00;99.90
46976;DHT22;32724;51.094;6.996;2022-07-10T13:53:49;18.90;99.90
46976;DHT22;32724;51.094;6.996;2022-07-10T13:56:14;19.20;99.90
46976;DHT22;32724;51.094;6.996;2022-07-10T13:58:39;19.50;99.90
46976;DHT22;32724;51.094;6.996;2022-07-10T14:01:05;19.80;99.90
46976;DHT22;32724;51.094;6.996;2022-07-10T14:03:30;20.00;99.90
46976;DHT22;32724;51.094;6.996;2022-07-10T14:05:56;19.90;99.90
46976;DHT22;32724;51.094;6.996;2022-07-10T14:08:22;20.00;99.90
46976;DHT22;32724;51.094;6.996;2022-07-10T14:10:48;20.00;99.90
46976;DHT22;32724;51.094;6.996;2022-07-10T14:13:13;20.20;99.90
46976;DHT22;32724;51.094;6.996;2022-07-10T14:15:39;20.20;99.90
46976;DHT22;32724;51.094;6.996;2022-07-10T14:18:05;20.10;99.90
46976;DHT22;32724;51.094;6.996;2022-07-10T14:20:31;20.20;99.90
46976;DHT22;32724;51.094;6.996;2022-07-10T14:23:17;20.30;99.90
46976;DHT22;32724;51.094;6.996;2022-07-10T14:25:42;20.20;99.90
46976;DHT22;32724;51.094;6.996;2022-07-10T14:28:08;20.10;99.90
46976;DHT22;32724;51.094;6.996;2022-07-10T14:30:33;20.00;99.90
46976;DHT22;32724;51.094;6.996;2022-07-10T14:32:59;20.10;99.90
46976;DHT22;32724;51.094;6.996;2022-07-10T14:35:24;20.20;99.90
46976;DHT22;32724;51.094;6.996;2022-07-10T14:37:49;20.40;99.90
46976;DHT22;32724;51.094;6.996;2022-07-10T14:40:15;20.40;99.90
46976;DHT22;32724;51.094;6.996;2022-07-10T14:42:40;20.30;99.90
46976;DHT22;32724;51.094;6.996;2022-07-10T14:45:06;20.20;99.90
46976;DHT22;32724;51.094;6.996;2022-07-10T14:47:32;20.10;99.90
46976;DHT22;32724;51.094;6.996;2022-07-10T14:49:58;20.10;99.90
46976;DHT22;32724;51.094;6.996;2022-07-10T14:52:23;20.10;99.90
46976;DHT22;32724;51.094;6.996;2022-07-10T14:54:51;20.10;99.90
46976;DHT22;32724;51.094;6.996;2022-07-10T14:57:16;20.00;99.90
46976;DHT22;32724;51.094;6.996;2022-07-10T14:59:42;20.10;99.90
46976;DHT22;32724;51.094;6.996;2022-07-10T15:02:07;19.90;99.90
46976;DHT22;32724;51.094;6.996;2022-07-10T15:04:33;20.00;99.90
46976;DHT22;32724;51.094;6.996;2022-07-10T15:06:58;19.90;99.90
46976;DHT22;32724;51.094;6.996;2022-07-10T15:09:24;19.70;99.90
46976;DHT22;32724;51.094;6.996;2022-07-10T15:11:49;19.50;99.90
46976;DHT22;32724;51.094;6.996;2022-07-10T15:14:16;19.50;99.90
46976;DHT22;32724;51.094;6.996;2022-07-10T15:16:42;19.40;99.90
46976;DHT22;32724;51.094;6.996;2022-07-10T15:19:08;19.30;99.90
46976;DHT22;32724;51.094;6.996;2022-07-10T15:21:35;19.20;99.90
46976;DHT22;32724;51.094;6.996;2022-07-10T15:24:01;19.20;99.90
46976;DHT22;32724;51.094;6.996;2022-07-10T15:26:26;19.20;99.90
46976;DHT22;32724;51.094;6.996;2022-07-10T15:28:52;19.20;99.90
46976;DHT22;32724;51.094;6.996;2022-07-10T15:31:17;19.30;99.90
46976;DHT22;32724;51.094;6.996;2022-07-10T15:33:43;19.50;99.90
46976;DHT22;32724;51.094;6.996;2022-07-10T15:36:11;19.80;99.90
46976;DHT22;32724;51.094;6.996;2022-07-10T15:38:37;20.10;99.90
46976;DHT22;32724;51.094;6.996;2022-07-10T15:41:02;20.40;99.90
46976;DHT22;32724;51.094;6.996;2022-07-10T15:43:28;20.70;99.90
46976;DHT22;32724;51.094;6.996;2022-07-10T15:45:54;20.80;99.90
46976;DHT22;32724;51.094;6.996;2022-07-10T15:48:20;20.80;99.90
46976;DHT22;32724;51.094;6.996;2022-07-10T15:50:46;20.90;99.90
46976;DHT22;32724;51.094;6.996;2022-07-10T15:53:11;20.70;99.90
46976;DHT22;32724;51.094;6.996;2022-07-10T15:55:37;20.70;99.90
46976;DHT22;32724;51.094;6.996;2022-07-10T15:58:03;20.70;99.90
46976;DHT22;32724;51.094;6.996;2022-07-10T16:00:28;20.80;99.90
46976;DHT22;32724;51.094;6.996;2022-07-10T16:02:54;21.00;99.90